Shellharbour, Australia
Current Conditions -  °F | °C
As of 9:00 AM on Sunday 21 Dec 2014 (Local Time) from YSNW Reporting Station
Clear Clear  
Wind Chill: 70°   Ceiling: Unl
Heat Index: 70°   Visibility: 6mi
Dew Point: 57°   Wind: 1mph
Humidity: 64%   Direction: 360°N
Pressure: 30.06"   Gusts: NA
Location:  34.58°S, 150.87°E
Report Text: YSNW 202200Z AUTO 36001KT 9999 // NCD 21/14 Q1018
Loading
Personal Weather Stations






























Interactive Weather Map New forecast layout! Learn more

10-Day Weather Forecast

Advertisements
Track Severe Weather on mobile